Time;durP1;ratioP1;P1;durP2;ratioP2;P2;SDS_P1;SDS_P2;PMS_P1;PMS_P2;Temp;Humidity;BMP_temperature;BMP_pressure;BME280_temperature;BME280_humidity;BME280_pressure;Samples;Min_cycle;Max_cycle;Signal;HPM_P1;HPM_P2
2023/06/12 00:01:07;;;;;;;16.92;9.70;;;;;;;21.09;100.00;100539.31;5154987;27;20485;-73
2023/06/12 00:03:55;;;;;;;14.63;10.05;;;;;;;21.07;100.00;100535.91;5155042;27;20027;-74
2023/06/12 00:06:41;;;;;;;10.57;9.43;;;;;;;21.35;100.00;100538.50;5140454;27;20117;-74
2023/06/12 00:09:29;;;;;;;14.82;9.65;;;;;;;21.07;100.00;100546.56;5154460;27;20363;-74
2023/06/12 00:12:15;;;;;;;12.60;9.70;;;;;;;20.45;100.00;100546.03;5139740;27;20023;-74
2023/06/12 00:15:01;;;;;;;15.82;9.65;;;;;;;20.95;100.00;100538.47;5155502;27;20027;-73
2023/06/12 00:17:48;;;;;;;14.65;9.65;;;;;;;20.52;100.00;100544.69;5154593;27;20034;-74
2023/06/12 00:20:33;;;;;;;17.25;9.85;;;;;;;20.84;100.00;100547.09;5154316;27;20051;-73
2023/06/12 00:23:19;;;;;;;17.38;9.82;;;;;;;21.08;100.00;100548.25;5154036;27;20393;-74
2023/06/12 00:26:05;;;;;;;16.08;10.20;;;;;;;20.80;100.00;100544.69;5140475;27;20023;-74
2023/06/12 00:28:51;;;;;;;12.88;9.85;;;;;;;20.87;100.00;100544.25;5139909;27;20031;-74
2023/06/12 00:31:36;;;;;;;14.82;10.13;;;;;;;21.13;100.00;100547.97;5153950;27;20114;-74
2023/06/12 00:34:22;;;;;;;16.13;10.43;;;;;;;20.83;100.00;100555.19;5154917;27;20019;-74
2023/06/12 00:37:08;;;;;;;17.02;10.27;;;;;;;21.13;100.00;100548.81;5154801;27;20022;-73
2023/06/12 00:39:53;;;;;;;18.35;10.52;;;;;;;20.97;100.00;100547.22;5154724;27;20080;-74
2023/06/12 00:42:48;;;;;;;15.10;9.77;;;;;;;20.95;100.00;100552.66;5157342;27;20029;-74
2023/06/12 00:45:33;;;;;;;17.88;10.10;;;;;;;20.67;100.00;100546.41;5158092;27;20163;-73
2023/06/12 00:48:19;;;;;;;18.70;9.57;;;;;;;20.51;100.00;100557.16;5158425;27;20078;-74
2023/06/12 00:51:08;;;;;;;15.85;10.05;;;;;;;20.43;100.00;100558.56;5158154;27;20109;-74
2023/06/12 00:53:55;;;;;;;13.52;9.32;;;;;;;20.49;100.00;100548.38;5158420;27;20030;-74
2023/06/12 00:56:42;;;;;;;13.00;9.40;;;;;;;20.57;100.00;100556.78;5158666;27;20090;-74
2023/06/12 00:59:28;;;;;;;17.02;10.05;;;;;;;20.38;100.00;100552.66;5157899;27;20108;-75
2023/06/12 01:02:13;;;;;;;15.50;10.45;;;;;;;20.52;100.00;100550.00;5158084;27;20014;-74
2023/06/12 01:04:59;;;;;;;15.98;10.85;;;;;;;20.16;100.00;100555.75;5158149;27;20037;-74
2023/06/12 01:07:55;;;;;;;21.80;11.63;;;;;;;20.38;100.00;100558.84;5158277;27;20027;-73
2023/06/12 01:11:17;;;;;;;19.50;11.43;;;;;;;20.51;100.00;100559.81;5143038;27;20058;-74
2023/06/12 01:14:02;;;;;;;15.77;11.00;;;;;;;20.28;100.00;100555.00;5111955;27;20429;-74
2023/06/12 01:16:48;;;;;;;14.40;10.30;;;;;;;19.94;100.00;100560.59;5158083;27;20022;-74
2023/06/12 01:19:35;;;;;;;16.13;9.88;;;;;;;20.10;100.00;100561.44;5157521;27;20473;-74
2023/06/12 01:22:23;;;;;;;13.27;10.02;;;;;;;20.33;100.00;100562.72;5156491;27;20037;-75
2023/06/12 01:25:23;;;;;;;13.55;10.20;;;;;;;20.22;100.00;100566.03;5157466;27;20087;-74
2023/06/12 01:28:37;;;;;;;13.48;10.13;;;;;;;20.30;100.00;100570.88;5157784;27;20451;-73
2023/06/12 01:31:38;;;;;;;16.55;10.10;;;;;;;20.21;100.00;100568.78;5157157;27;20034;-74
2023/06/12 01:34:36;;;;;;;13.23;10.77;;;;;;;20.41;100.00;100579.09;5158011;27;20018;-74
2023/06/12 01:37:33;;;;;;;14.32;10.43;;;;;;;20.36;100.00;100574.03;5157790;27;20027;-74
2023/06/12 01:40:21;;;;;;;14.05;10.60;;;;;;;20.23;100.00;100578.38;5157809;27;20018;-74
2023/06/12 01:43:07;;;;;;;12.95;10.43;;;;;;;20.69;100.00;100576.47;5157092;27;20029;-73
2023/06/12 01:45:52;;;;;;;17.85;11.38;;;;;;;20.69;100.00;100576.47;5142064;27;20446;-74
2023/06/12 01:48:40;;;;;;;13.48;10.90;;;;;;;-140.66;100.00;55571.53;5157489;27;20029;-73
2023/06/12 01:51:26;;;;;;;15.90;11.55;;;;;;;-140.66;100.00;55571.53;5156917;27;20109;-74
2023/06/12 01:54:11;;;;;;;13.50;11.95;;;;;;;-140.66;100.00;55571.53;5156319;27;20463;-75
2023/06/12 01:56:57;;;;;;;14.13;10.77;;;;;;;-140.66;100.00;55571.53;5157597;27;20035;-75
2023/06/12 01:59:45;;;;;;;17.38;11.55;;;;;;;-140.66;100.00;55571.53;5157665;27;20098;-75
2023/06/12 02:02:33;;;;;;;16.85;11.15;;;;;;;-140.66;100.00;55571.53;5157051;27;20025;-75
2023/06/12 02:05:20;;;;;;;17.17;11.75;;;;;;;-140.66;100.00;55571.53;5157815;27;20428;-75
2023/06/12 02:08:06;;;;;;;16.42;12.13;;;;;;;-140.66;100.00;55571.53;5156983;27;20023;-74
2023/06/12 02:10:51;;;;;;;16.08;11.30;;;;;;;-140.66;100.00;55571.53;5157030;27;20022;-74
2023/06/12 02:13:37;;;;;;;16.27;11.93;;;;;;;-140.66;100.00;55571.53;5155860;27;20034;-74
2023/06/12 02:16:23;;;;;;;17.05;11.68;;;;;;;-140.66;100.00;55571.53;5156662;27;20022;-74
2023/06/12 02:19:09;;;;;;;15.35;11.93;;;;;;;-140.66;100.00;55571.53;5141368;27;20122;-75
2023/06/12 02:21:56;;;;;;;19.52;13.07;;;;;;;-140.66;100.00;55571.53;5141400;27;20110;-73
2023/06/12 02:24:42;;;;;;;17.55;13.13;;;;;;;-140.66;100.00;55571.53;5156831;27;20102;-75
2023/06/12 02:27:28;;;;;;;22.58;13.00;;;;;;;-140.66;100.00;55571.53;5156387;27;20050;-74
2023/06/12 02:30:13;;;;;;;21.92;14.13;;;;;;;-140.66;100.00;55571.53;5156249;27;20031;-75
2023/06/12 02:33:02;;;;;;;18.00;13.10;;;;;;;-140.66;100.00;55571.53;5156035;27;20029;-74
2023/06/12 02:35:48;;;;;;;19.38;14.02;;;;;;;-140.66;100.00;55571.53;5156135;27;20023;-73
2023/06/12 02:38:35;;;;;;;19.25;14.02;;;;;;;-140.66;100.00;55571.53;5156734;27;20023;-73
2023/06/12 02:41:20;;;;;;;20.83;15.38;;;;;;;-140.66;100.00;55571.53;5156226;27;20023;-74
2023/06/12 02:44:07;;;;;;;26.88;14.75;;;;;;;-140.66;100.00;55571.53;5141129;27;20054;-74
2023/06/12 02:46:52;;;;;;;20.08;14.98;;;;;;;-140.66;100.00;55571.53;5156532;27;20455;-75
2023/06/12 02:49:44;;;;;;;18.75;14.20;;;;;;;-140.66;100.00;55571.53;5156298;27;20031;-74
2023/06/12 02:52:29;;;;;;;19.38;15.93;;;;;;;-140.66;100.00;55571.53;5155572;27;20037;-74
2023/06/12 02:55:15;;;;;;;21.58;15.75;;;;;;;-140.66;100.00;55571.53;5140851;27;20022;-75
2023/06/12 02:58:01;;;;;;;20.35;14.65;;;;;;;-140.66;100.00;55571.53;5155833;27;20488;-75
2023/06/12 03:00:47;;;;;;;19.85;16.15;;;;;;;-140.66;100.00;55571.53;5140454;27;20038;-75
2023/06/12 03:03:35;;;;;;;21.45;15.02;;;;;;;-140.66;100.00;55571.53;5155952;27;20042;-76
2023/06/12 03:06:26;;;;;;;19.17;15.20;;;;;;;-140.66;100.00;55571.53;5154316;27;20034;-77
2023/06/12 03:09:15;;;;;;;18.33;15.15;;;;;;;-140.66;100.00;55571.53;5155823;27;20364;-76
2023/06/12 03:12:02;;;;;;;19.20;15.57;;;;;;;-140.66;100.00;55571.53;5155680;27;20031;-76
2023/06/12 03:14:49;;;;;;;20.75;16.05;;;;;;;-140.66;100.00;55571.53;5140975;27;20054;-74
2023/06/12 03:17:37;;;;;;;18.55;15.63;;;;;;;-140.66;100.00;55571.53;5140660;27;20106;-76
2023/06/12 03:20:24;;;;;;;24.85;16.60;;;;;;;-140.66;100.00;55571.53;5155101;27;20042;-75
2023/06/12 03:23:10;;;;;;;21.58;16.00;;;;;;;-140.66;100.00;55571.53;5155834;27;20062;-75
2023/06/12 03:25:56;;;;;;;23.02;16.40;;;;;;;-140.66;100.00;55571.53;5140494;27;20022;-75
2023/06/12 03:28:43;;;;;;;22.52;16.90;;;;;;;-140.66;100.00;55571.53;5155969;27;20030;-75
2023/06/12 03:31:29;;;;;;;21.08;16.10;;;;;;;-140.66;100.00;55571.53;5155761;27;20360;-74
2023/06/12 03:34:16;;;;;;;22.15;15.13;;;;;;;-140.66;100.00;55571.53;5155943;27;20033;-74
2023/06/12 03:37:01;;;;;;;22.10;15.95;;;;;;;-140.66;100.00;55571.53;5155982;27;20027;-74
2023/06/12 03:39:47;;;;;;;23.33;15.98;;;;;;;-140.66;100.00;55571.53;5155522;27;20038;-75
2023/06/12 03:42:33;;;;;;;25.10;16.98;;;;;;;-140.66;100.00;55571.53;5155328;27;20025;-75
2023/06/12 03:45:19;;;;;;;20.02;15.40;;;;;;;-140.66;100.00;55571.53;5155685;27;20034;-74
2023/06/12 03:48:05;;;;;;;21.95;16.17;;;;;;;-140.66;100.00;55571.53;5155444;27;20027;-75
2023/06/12 03:50:51;;;;;;;25.80;15.95;;;;;;;-140.66;100.00;55571.53;5155285;27;20360;-75
2023/06/12 03:53:37;;;;;;;25.08;15.07;;;;;;;-140.66;100.00;55571.53;5154994;27;20023;-75
2023/06/12 03:56:23;;;;;;;23.05;14.35;;;;;;;-140.66;100.00;55571.53;5140354;27;20429;-75
2023/06/12 03:59:09;;;;;;;21.23;13.48;;;;;;;-140.66;100.00;55571.53;5155227;27;20035;-75
2023/06/12 04:01:57;;;;;;;29.17;14.45;;;;;;;-140.66;100.00;55571.53;5139989;27;20064;-75
2023/06/12 04:04:43;;;;;;;21.95;14.20;;;;;;;-140.66;100.00;55571.53;5155060;27;20022;-75
2023/06/12 04:07:29;;;;;;;24.25;14.15;;;;;;;-140.66;100.00;55571.53;5140366;27;20023;-74
2023/06/12 04:10:14;;;;;;;19.85;13.68;;;;;;;-140.66;100.00;55571.53;5154842;27;20026;-73
2023/06/12 04:13:00;;;;;;;27.10;14.38;;;;;;;-140.66;100.00;55571.53;5139681;27;20026;-75
2023/06/12 04:15:47;;;;;;;23.90;14.38;;;;;;;-140.66;100.00;55571.53;5139717;27;20019;-74
2023/06/12 04:18:32;;;;;;;26.73;14.02;;;;;;;-140.66;100.00;55571.53;5159411;27;20488;-77
2023/06/12 04:21:20;;;;;;;28.65;14.43;;;;;;;-140.66;100.00;55571.53;5143602;27;20375;-74
2023/06/12 04:24:13;;;;;;;24.00;13.88;;;;;;;-140.66;100.00;55571.53;5158824;27;20137;-72
2023/06/12 04:27:09;;;;;;;21.40;13.63;;;;;;;-140.66;100.00;55571.53;5159118;27;20106;-73
2023/06/12 04:29:57;;;;;;;20.25;13.10;;;;;;;-140.66;100.00;55571.53;5158639;27;20118;-73
2023/06/12 04:32:42;;;;;;;19.58;12.73;;;;;;;-140.66;100.00;55571.53;5158521;27;20030;-73
2023/06/12 04:35:28;;;;;;;19.40;12.80;;;;;;;-140.66;100.00;55571.53;5159132;27;20064;-73
2023/06/12 04:38:14;;;;;;;16.50;12.10;;;;;;;-140.66;100.00;55571.53;5158870;27;20023;-73
2023/06/12 04:41:00;;;;;;;18.83;11.35;;;;;;;-140.66;100.00;55571.53;5158489;27;20041;-74
2023/06/12 04:43:49;;;;;;;19.20;12.25;;;;;;;-140.66;100.00;55571.53;5158449;27;20456;-74
2023/06/12 04:46:35;;;;;;;15.68;11.13;;;;;;;-140.66;100.00;55571.53;5158916;27;20444;-74
2023/06/12 04:49:22;;;;;;;18.50;11.43;;;;;;;-140.66;100.00;55571.53;5158824;27;20117;-73
2023/06/12 04:52:09;;;;;;;17.75;11.07;;;;;;;-140.66;100.00;55571.53;5158486;27;20019;-74
2023/06/12 04:54:55;;;;;;;15.63;10.15;;;;;;;-140.66;100.00;55571.53;5143457;27;20360;-73
2023/06/12 04:57:43;;;;;;;14.82;9.93;;;;;;;-140.66;100.00;55571.53;5143569;27;20026;-73
2023/06/12 05:00:30;;;;;;;21.15;11.50;;;;;;;-140.66;100.00;55571.53;5157596;27;20448;-73
2023/06/12 05:03:17;;;;;;;19.42;10.48;;;;;;;-140.66;100.00;55571.53;5159143;27;20075;-73
2023/06/12 05:06:03;;;;;;;17.17;10.18;;;;;;;-140.66;100.00;55571.53;5158312;27;20033;-74
2023/06/12 05:08:49;;;;;;;19.10;10.25;;;;;;;-140.66;100.00;55571.53;5128805;27;20504;-74
2023/06/12 05:11:35;;;;;;;18.42;10.43;;;;;;;-140.66;100.00;55571.53;5157888;27;20030;-73
2023/06/12 05:14:20;;;;;;;13.23;9.55;;;;;;;-140.66;100.00;55571.53;5158412;27;20439;-74
2023/06/12 05:17:06;;;;;;;17.73;9.80;;;;;;;-140.66;100.00;55571.53;5157830;27;20041;-73
2023/06/12 05:19:52;;;;;;;14.10;9.13;;;;;;;-140.66;100.00;55571.53;5142306;27;20050;-74
2023/06/12 05:22:38;;;;;;;20.05;10.15;;;;;;;-140.66;100.00;55571.53;5156233;27;20046;-74
2023/06/12 05:25:23;;;;;;;12.88;9.40;;;;;;;-140.66;100.00;55571.53;5158572;27;20512;-74
2023/06/12 05:28:09;;;;;;;25.27;10.27;;;;;;;-140.66;100.00;55571.53;5140465;27;20026;-74
2023/06/12 05:30:55;;;;;;;18.48;9.18;;;;;;;-140.66;100.00;55571.53;5142599;27;20058;-73
2023/06/12 05:33:41;;;;;;;14.23;8.82;;;;;;;-140.66;100.00;55571.53;5141279;27;20110;-74
2023/06/12 05:36:27;;;;;;;12.43;8.88;;;;;;;-140.66;100.00;55571.53;5156503;27;20379;-73
2023/06/12 05:39:13;;;;;;;17.58;9.00;;;;;;;-140.66;100.00;55571.53;5142244;27;20356;-74
2023/06/12 05:41:59;;;;;;;11.27;8.57;;;;;;;-140.66;100.00;55571.53;5157756;27;20419;-74
2023/06/12 05:44:48;;;;;;;17.15;8.85;;;;;;;-140.66;100.00;55571.53;5142292;27;20022;-73
2023/06/12 05:47:33;;;;;;;11.45;8.40;;;;;;;-140.66;100.00;55571.53;5141657;27;20023;-74
2023/06/12 05:50:19;;;;;;;16.88;9.20;;;;;;;-140.66;100.00;55571.53;5142173;27;20422;-73
2023/06/12 05:53:05;;;;;;;12.85;8.23;;;;;;;-140.66;100.00;55571.53;5156344;27;20050;-73
2023/06/12 05:55:51;;;;;;;16.65;8.20;;;;;;;-140.66;100.00;55571.53;5141992;27;20105;-74
2023/06/12 05:58:37;;;;;;;12.35;7.75;;;;;;;-140.66;100.00;55571.53;5156913;27;20433;-74
2023/06/12 06:01:25;;;;;;;14.73;8.18;;;;;;;-140.66;100.00;55571.53;5156360;27;20063;-74
2023/06/12 06:04:11;;;;;;;15.38;8.20;;;;;;;-140.66;100.00;55571.53;5155688;27;20015;-73
2023/06/12 06:06:57;;;;;;;11.50;7.32;;;;;;;-140.66;100.00;55571.53;5156533;27;20503;-73
2023/06/12 06:09:43;;;;;;;12.02;8.43;;;;;;;-140.66;100.00;55571.53;5155510;27;20023;-74
2023/06/12 06:12:28;;;;;;;15.05;9.07;;;;;;;-140.66;100.00;55571.53;5141431;27;20078;-74
2023/06/12 06:15:14;;;;;;;15.68;7.82;;;;;;;-140.66;100.00;55571.53;5155918;27;20078;-74
2023/06/12 06:18:00;;;;;;;14.02;7.80;;;;;;;-140.66;100.00;55571.53;5156544;27;20515;-75
2023/06/12 06:20:46;;;;;;;14.93;7.88;;;;;;;-140.66;100.00;55571.53;5155786;27;20051;-73
2023/06/12 06:23:33;;;;;;;11.30;7.30;;;;;;;-140.66;100.00;55571.53;5156906;27;20083;-74
2023/06/12 06:26:19;;;;;;;12.27;7.90;;;;;;;-140.66;100.00;55571.53;5150546;27;20446;-74
2023/06/12 06:29:05;;;;;;;19.77;7.68;;;;;;;-140.66;100.00;55571.53;5141827;27;20030;-73
2023/06/12 06:31:50;;;;;;;11.30;7.38;;;;;;;-140.66;100.00;55571.53;5141389;27;20029;-73
2023/06/12 06:34:37;;;;;;;20.02;8.57;;;;;;;-140.66;100.00;55571.53;5141449;27;20019;-74
2023/06/12 06:37:22;;;;;;;13.50;8.18;;;;;;;-140.66;100.00;55571.53;5155369;27;20091;-75
2023/06/12 06:40:09;;;;;;;20.40;7.53;;;;;;;-140.66;100.00;55571.53;5155593;27;20030;-74
2023/06/12 06:42:54;;;;;;;12.48;7.13;;;;;;;-140.66;100.00;55571.53;5156732;27;20344;-73
2023/06/12 06:45:40;;;;;;;15.60;7.38;;;;;;;-140.66;100.00;55571.53;5156361;27;20113;-73
2023/06/12 06:48:26;;;;;;;14.00;7.30;;;;;;;-140.66;100.00;55571.53;5155937;27;20037;-74
2023/06/12 06:51:12;;;;;;;14.85;6.90;;;;;;;-140.66;100.00;55571.53;5155018;27;20022;-74
2023/06/12 06:53:58;;;;;;;12.40;6.90;;;;;;;-140.66;100.00;55571.53;5156357;27;20023;-74
2023/06/12 06:56:44;;;;;;;17.27;7.65;;;;;;;-140.66;100.00;55571.53;5155512;27;20447;-74
2023/06/12 06:59:30;;;;;;;13.02;7.72;;;;;;;-140.66;100.00;55571.53;5155267;27;20410;-73
2023/06/12 07:02:16;;;;;;;11.70;7.25;;;;;;;-140.66;100.00;55571.53;5155858;27;20336;-73
2023/06/12 07:05:02;;;;;;;19.70;7.80;;;;;;;-140.66;100.00;55571.53;5154787;27;20031;-74
2023/06/12 07:07:49;;;;;;;12.10;6.90;;;;;;;-140.66;100.00;55571.53;5156064;27;20451;-75
2023/06/12 07:10:35;;;;;;;10.35;7.50;;;;;;;-140.66;100.00;55571.53;5155573;27;20514;-74
2023/06/12 07:13:21;;;;;;;12.85;7.45;;;;;;;-140.66;100.00;55571.53;5155819;27;20033;-74
2023/06/12 07:16:06;;;;;;;12.38;7.18;;;;;;;-140.66;100.00;55571.53;5155363;27;20360;-73
2023/06/12 07:18:52;;;;;;;11.77;6.68;;;;;;;-140.66;100.00;55571.53;5140610;27;20054;-74
2023/06/12 07:21:38;;;;;;;10.13;6.63;;;;;;;-140.66;100.00;55571.53;5155469;27;20041;-73
2023/06/12 07:24:24;;;;;;;11.40;7.15;;;;;;;-140.66;100.00;55571.53;5154854;27;20022;-74
2023/06/12 07:27:10;;;;;;;12.88;6.53;;;;;;;-140.66;100.00;55571.53;5154903;27;20076;-73
2023/06/12 07:29:56;;;;;;;10.93;6.80;;;;;;;-140.66;100.00;55571.53;5140263;27;20031;-72
2023/06/12 07:32:41;;;;;;;10.38;6.53;;;;;;;-140.66;100.00;55571.53;5154410;27;20440;-74
2023/06/12 07:35:27;;;;;;;13.65;6.82;;;;;;;-140.66;100.00;55571.53;5155287;27;20058;-74
2023/06/12 07:38:13;;;;;;;12.45;6.70;;;;;;;-140.66;100.00;55571.53;5154764;27;20091;-74
2023/06/12 07:40:59;;;;;;;8.40;6.80;;;;;;;-140.66;100.00;55571.53;5154236;27;20092;-73
2023/06/12 07:43:44;;;;;;;10.75;6.75;;;;;;;-140.66;100.00;55571.53;5154946;27;20325;-74
2023/06/12 07:46:30;;;;;;;7.70;6.25;;;;;;;-140.66;100.00;55571.53;5155406;27;20368;-74
2023/06/12 07:49:17;;;;;;;12.65;6.68;;;;;;;-140.66;100.00;55571.53;5154837;27;20483;-75
2023/06/12 07:52:03;;;;;;;11.80;6.05;;;;;;;-140.66;100.00;55571.53;5157337;27;20026;-74
2023/06/12 07:54:49;;;;;;;8.98;6.28;;;;;;;-140.66;100.00;55571.53;5159259;27;20020;-74
2023/06/12 07:57:35;;;;;;;8.65;6.63;;;;;;;-140.66;100.00;55571.53;5159340;27;20058;-74
2023/06/12 08:00:22;;;;;;;14.18;6.35;;;;;;;-140.66;100.00;55571.53;5144897;27;20045;-74
2023/06/12 08:03:08;;;;;;;11.35;7.22;;;;;;;-140.66;100.00;55571.53;5158853;27;20041;-73
2023/06/12 08:05:54;;;;;;;9.90;6.60;;;;;;;-140.66;100.00;55571.53;5159723;27;20019;-73
2023/06/12 08:08:47;;;;;;;9.82;5.93;;;;;;;-140.66;100.00;55571.53;5158837;27;20038;-74
2023/06/12 08:11:33;;;;;;;14.50;6.63;;;;;;;-140.66;100.00;55571.53;5158911;27;20022;-74
2023/06/12 08:14:18;;;;;;;10.07;6.32;;;;;;;-140.66;100.00;55571.53;5158475;27;20343;-74
2023/06/12 08:17:05;;;;;;;10.60;6.00;;;;;;;-140.66;100.00;55571.53;5143536;27;20440;-74
2023/06/12 08:19:50;;;;;;;9.63;7.03;;;;;;;-140.66;100.00;55571.53;5143360;27;20069;-74
2023/06/12 08:22:36;;;;;;;10.23;6.25;;;;;;;-140.66;100.00;55571.53;5158743;27;20505;-74
2023/06/12 08:25:22;;;;;;;10.15;6.40;;;;;;;-140.66;100.00;55571.53;5158798;27;20367;-74
2023/06/12 08:28:08;;;;;;;12.85;6.50;;;;;;;-140.66;100.00;55571.53;5142942;27;20026;-74
2023/06/12 08:30:57;;;;;;;9.75;6.40;;;;;;;-140.66;100.00;55571.53;5158942;27;20033;-74
2023/06/12 08:33:43;;;;;;;7.43;6.30;;;;;;;-140.66;100.00;55571.53;5159233;27;20023;-73
2023/06/12 08:36:29;;;;;;;12.38;6.63;;;;;;;-140.66;100.00;55571.53;5145060;27;20436;-73
2023/06/12 08:39:14;;;;;;;11.65;6.50;;;;;;;-140.66;100.00;55571.53;5143885;27;20089;-74
2023/06/12 08:42:07;;;;;;;11.07;6.40;;;;;;;-140.66;100.00;55571.53;5158023;27;20018;-74
2023/06/12 08:45:03;;;;;;;10.35;6.90;;;;;;;-140.66;100.00;55571.53;5158505;27;20023;-74
2023/06/12 08:47:49;;;;;;;17.27;6.10;;;;;;;-140.66;100.00;55571.53;5143795;27;20118;-73
2023/06/12 08:50:35;;;;;;;11.23;6.50;;;;;;;-140.66;100.00;55571.53;5144290;27;20042;-73
2023/06/12 08:53:22;;;;;;;13.10;6.78;;;;;;;-140.66;100.00;55571.53;5158169;27;20353;-74
2023/06/12 08:56:10;;;;;;;11.05;6.22;;;;;;;-140.66;100.00;55571.53;5142803;27;20026;-74
2023/06/12 08:58:57;;;;;;;10.65;6.38;;;;;;;-140.66;100.00;55571.53;5158159;27;20077;-74
2023/06/12 09:01:45;;;;;;;7.90;6.07;;;;;;;-140.66;100.00;55571.53;5143823;27;20026;-74
2023/06/12 09:04:41;;;;;;;12.02;6.22;;;;;;;-140.66;100.00;55571.53;5157565;27;20019;-74
2023/06/12 09:07:29;;;;;;;8.43;5.97;;;;;;;-140.66;100.00;55571.53;5158035;27;20029;-74
2023/06/12 09:10:15;;;;;;;9.95;6.35;;;;;;;-140.66;100.00;55571.53;5157898;27;20514;-73
2023/06/12 09:13:08;;;;;;;11.05;6.22;;;;;;;-140.66;100.00;55571.53;5157250;27;20042;-74
2023/06/12 09:15:54;;;;;;;12.15;6.55;;;;;;;-140.66;100.00;55571.53;5157514;27;20033;-73
2023/06/12 09:18:50;;;;;;;11.20;5.70;;;;;;;-140.66;100.00;55571.53;5156784;27;20118;-74
2023/06/12 09:21:37;;;;;;;12.02;5.90;;;;;;;-140.66;100.00;55571.53;5158050;27;20039;-73
2023/06/12 09:24:22;;;;;;;8.30;5.20;;;;;;;-140.66;100.00;55571.53;5157942;27;20022;-72
2023/06/12 09:27:08;;;;;;;12.23;6.03;;;;;;;-140.66;100.00;55571.53;5156915;27;20031;-74
2023/06/12 09:29:59;;;;;;;10.70;5.63;;;;;;;-140.66;100.00;55571.53;5156426;27;20022;-73
2023/06/12 09:32:45;;;;;;;9.60;5.53;;;;;;;-140.66;100.00;55571.53;5142479;27;20027;-74
2023/06/12 09:35:31;;;;;;;12.50;6.80;;;;;;;-140.66;100.00;55571.53;5156546;27;20091;-73
2023/06/12 09:38:17;;;;;;;6.93;5.43;;;;;;;-140.66;100.00;55571.53;5142482;27;20107;-73
2023/06/12 09:41:04;;;;;;;12.57;6.00;;;;;;;-140.66;100.00;55571.53;5142270;27;20453;-74
2023/06/12 09:44:01;;;;;;;14.15;6.57;;;;;;;-140.66;100.00;55571.53;5157536;27;20084;-75
2023/06/12 09:46:51;;;;;;;9.45;6.47;;;;;;;-140.66;100.00;55571.53;5157226;27;20113;-74
2023/06/12 09:49:37;;;;;;;9.60;6.13;;;;;;;-140.66;100.00;55571.53;5157272;27;20022;-74
2023/06/12 09:52:23;;;;;;;10.02;6.13;;;;;;;-140.66;100.00;55571.53;5156979;27;20359;-74
2023/06/12 09:55:17;;;;;;;9.82;6.25;;;;;;;-140.66;100.00;55571.53;5142103;27;20031;-75
2023/06/12 09:58:07;;;;;;;8.32;5.72;;;;;;;-140.66;100.00;55571.53;5140980;27;20069;-74
2023/06/12 10:00:55;;;;;;;11.40;6.32;;;;;;;-140.66;100.00;55571.53;5156076;27;20114;-74
2023/06/12 10:03:44;;;;;;;9.90;6.88;;;;;;;-140.66;100.00;55571.53;5156192;27;20030;-74
2023/06/12 10:06:32;;;;;;;11.27;5.50;;;;;;;-140.66;100.00;55571.53;5156726;27;20037;-74
2023/06/12 10:09:20;;;;;;;9.18;6.50;;;;;;;-140.66;100.00;55571.53;5156156;27;20019;-74
2023/06/12 10:12:07;;;;;;;9.35;6.50;;;;;;;-140.66;100.00;55571.53;5156350;27;20432;-74
2023/06/12 10:14:53;;;;;;;10.50;6.30;;;;;;;-140.66;100.00;55571.53;5156211;27;20029;-74
2023/06/12 10:17:40;;;;;;;25.38;6.55;;;;;;;-140.66;100.00;55571.53;5157280;27;20023;-74
2023/06/12 10:20:26;;;;;;;9.75;6.35;;;;;;;-140.66;100.00;55571.53;5155099;27;20042;-74
2023/06/12 10:23:13;;;;;;;11.32;6.50;;;;;;;-140.66;100.00;55571.53;5156254;27;20033;-73
2023/06/12 10:25:59;;;;;;;14.23;7.45;;;;;;;-140.66;100.00;55571.53;5155570;27;20446;-75
2023/06/12 10:28:45;;;;;;;17.88;6.80;;;;;;;-140.66;100.00;55571.53;5155442;27;20019;-73
2023/06/12 10:31:32;;;;;;;10.98;6.72;;;;;;;-140.66;100.00;55571.53;5155902;27;20023;-73
2023/06/12 10:34:20;;;;;;;11.93;6.68;;;;;;;-140.66;100.00;55571.53;5155081;27;20029;-74
2023/06/12 10:37:25;;;;;;;10.60;6.70;;;;;;;-140.66;100.00;55571.53;5156347;27;20037;-74
2023/06/12 10:40:11;;;;;;;7.53;6.35;;;;;;;-140.66;100.00;55571.53;5155645;27;20353;-74
2023/06/12 10:43:08;;;;;;;9.93;6.90;;;;;;;-140.66;100.00;55571.53;5155610;27;20106;-74
2023/06/12 10:46:00;;;;;;;12.13;7.10;;;;;;;-140.66;100.00;55571.53;5156175;27;20451;-74
2023/06/12 10:48:46;;;;;;;10.23;7.13;;;;;;;-140.66;100.00;55571.53;5156114;27;20443;-74
2023/06/12 10:51:33;;;;;;;15.90;7.13;;;;;;;-140.66;100.00;55571.53;5155839;27;20022;-73
2023/06/12 10:54:28;;;;;;;11.68;6.47;;;;;;;-140.66;100.00;55571.53;5156670;27;20451;-73
2023/06/12 10:57:14;;;;;;;10.05;6.78;;;;;;;-140.66;100.00;55571.53;5141030;27;20022;-73
2023/06/12 10:59:59;;;;;;;18.73;7.88;;;;;;;-140.66;100.00;55571.53;5141061;27;20066;-72
2023/06/12 11:02:59;;;;;;;11.57;6.88;;;;;;;-140.66;100.00;55571.53;5157027;27;20037;-73
2023/06/12 11:05:50;;;;;;;11.27;7.25;;;;;;;-140.66;100.00;55571.53;5142798;27;20033;-73
2023/06/12 11:08:36;;;;;;;13.82;8.30;;;;;;;-140.66;100.00;55571.53;5158438;27;20045;-73
2023/06/12 11:11:21;;;;;;;9.85;6.70;;;;;;;-140.66;100.00;55571.53;5154569;27;20026;-73
2023/06/12 11:14:07;;;;;;;15.90;7.88;;;;;;;-140.66;100.00;55571.53;5156777;27;20022;-73
2023/06/12 11:16:57;;;;;;;15.15;7.15;;;;;;;-140.66;100.00;55571.53;5155806;27;20031;-73
2023/06/12 11:19:43;;;;;;;8.40;6.85;;;;;;;-140.66;100.00;55571.53;5140525;27;20438;-73
2023/06/12 11:22:29;;;;;;;12.45;7.18;;;;;;;-140.66;100.00;55571.53;5158133;27;20030;-73
2023/06/12 11:25:17;;;;;;;12.02;7.50;;;;;;;-140.66;100.00;55571.53;5155379;27;20042;-73
2023/06/12 11:28:05;;;;;;;9.57;6.75;;;;;;;-140.66;100.00;55571.53;5155383;27;20027;-73
2023/06/12 11:30:52;;;;;;;14.90;8.00;;;;;;;-140.66;100.00;55571.53;5155466;27;20360;-73
2023/06/12 11:33:38;;;;;;;13.18;6.78;;;;;;;-140.66;100.00;55571.53;5140557;27;20107;-73
2023/06/12 11:36:27;;;;;;;8.38;7.03;;;;;;;-140.66;100.00;55571.53;5139673;27;20105;-73
2023/06/12 11:39:17;;;;;;;11.02;7.13;;;;;;;-140.66;100.00;55571.53;5154408;27;20058;-74
2023/06/12 11:42:05;;;;;;;8.23;6.53;;;;;;;-140.66;100.00;55571.53;5155100;27;20026;-74
2023/06/12 11:44:51;;;;;;;12.02;7.57;;;;;;;-140.66;100.00;55571.53;5140287;27;20041;-74
2023/06/12 11:47:42;;;;;;;14.90;7.32;;;;;;;-140.66;100.00;55571.53;5139598;27;20038;-74
2023/06/12 11:50:28;;;;;;;13.43;7.32;;;;;;;-140.66;100.00;55571.53;5155535;27;20047;-74
2023/06/12 11:53:15;;;;;;;11.95;7.15;;;;;;;-140.66;100.00;55571.53;5140802;27;20054;-74
2023/06/12 11:56:04;;;;;;;11.13;6.65;;;;;;;-140.66;100.00;55571.53;5155540;27;20031;-72
2023/06/12 11:58:51;;;;;;;10.52;7.25;;;;;;;-140.66;100.00;55571.53;5155319;27;20384;-72
2023/06/12 12:01:38;;;;;;;10.93;7.72;;;;;;;-140.66;100.00;55571.53;5154495;27;20034;-72
2023/06/12 12:04:23;;;;;;;10.50;7.43;;;;;;;-140.66;100.00;55571.53;5154487;27;20396;-73
2023/06/12 12:07:09;;;;;;;13.88;6.95;;;;;;;-140.66;100.00;55571.53;5147199;27;20034;-72
2023/06/12 12:10:06;;;;;;;21.45;7.45;;;;;;;-140.66;100.00;55571.53;5150804;27;20027;-73
2023/06/12 12:12:59;;;;;;;11.57;7.88;;;;;;;-140.66;100.00;55571.53;5138499;27;20031;-71
2023/06/12 12:15:45;;;;;;;12.93;7.35;;;;;;;-140.66;100.00;55571.53;5154263;27;20041;-72
2023/06/12 12:18:31;;;;;;;9.82;7.30;;;;;;;-140.66;100.00;55571.53;5155032;27;20085;-71
2023/06/12 12:21:17;;;;;;;12.88;7.22;;;;;;;-140.66;100.00;55571.53;5154585;27;20087;-72
2023/06/12 12:24:03;;;;;;;11.07;7.20;;;;;;;-140.66;100.00;55571.53;5154768;27;20091;-71
2023/06/12 12:26:51;;;;;;;8.32;6.65;;;;;;;-140.66;100.00;55571.53;5140733;27;20044;-72
2023/06/12 12:29:36;;;;;;;11.80;7.38;;;;;;;-140.66;100.00;55571.53;5134135;28;20472;-71
2023/06/12 12:32:22;;;;;;;12.40;7.45;;;;;;;-140.66;100.00;55571.53;5134365;28;20360;-72